• Join FlightAware (Why Join?)
  • Login
  • US Flag 
01:16AM EDT


 

Airport Tracker/Info


-or-


 

Live Flight TrackerFlight Track Log ✈ VOZ1165 ✈ 23-Jun-2013 ✈ YSSY / SYD - YCFS

Flight Track Log - Related Links

Times and Time Zones

All times are in EDT time to prevent confusion due to time zone crossing. See the VOZ1165 flight status page for this flight to view local times or setup timezone preferences in your user account.

Time Position Orientation Groundspeed Altitude Reporting Facility
EDT Latitude Longitude Course Direction KTS MPH feet Rate Location/Type
09:44PM -33.9410 151.1780 168° South 15 17  Level FlightAware
09:45PM -33.9430 151.1790 157° South 14 16  Level FlightAware
09:45PM -33.9450 151.1790 180° South 13 15  Level FlightAware
09:46PM -33.9480 151.1800 165° South 28 32  Level FlightAware
09:47PM -33.9510 151.1820 151° Southeast 15 17  Level FlightAware
09:47PM -33.9500 151.1850 68° East 17 20  Level FlightAware
09:48PM -33.9510 151.1890 107° East 38 44 60 Level FlightAware
09:48PM -33.9570 151.1900 172° South 97 112 120 Level FlightAware
09:49PM -33.9720 151.1940 168° South 147 169 100 1,200 Climbing FlightAware
09:49PM -33.9810 151.2000 151° Southeast 150 173 800 1,860 Climbing FlightAware
09:50PM -33.9970 151.2170 139° Southeast 174 200 1,500 1,740 Climbing FlightAware
09:50PM -34.0130 151.2400 130° Southeast 202 232 2,400 2,580 Climbing FlightAware
09:51PM -34.0030 151.2680 67° East 200 230 3,900 2,400 Climbing FlightAware
09:51PM -33.9780 151.2930 40° Northeast 253 291 4,800 2,460 Climbing FlightAware
09:51PM -33.9540 151.3140 36° Northeast 259 298 6,200 3,360 Climbing FlightAware
09:52PM -33.9350 151.3180 10° North 263 303 7,100 3,780 Climbing FlightAware
09:52PM -33.8970 151.3230 North 274 315 9,000 3,060 Climbing FlightAware
09:53PM -33.8430 151.3300 North 296 341 10,700 2,820 Climbing FlightAware
09:54PM -33.7880 151.3380 North 305 351 12,800 3,240 Climbing FlightAware
09:54PM -33.7250 151.3460 North 306 352 15,300 3,660 Climbing FlightAware
09:55PM -33.6810 151.3484 North 293 337 17,400 3,300 Climbing Aus ATC (RADAR)
09:55PM -33.6680 151.3480 North 301 346 17,500 3,000 Climbing FlightAware
09:56PM -33.6180 151.3437 North 291 335 19,600 2,640 Climbing Aus ATC (RADAR)
09:56PM -33.6060 151.3430 North 308 354 19,500 1,260 Descending FlightAware
09:56PM -33.5460 151.3400 358° North 328 377 20,700 2,040 Climbing FlightAware
09:57PM -33.4763 151.3386 358° North 343 395 22,400 1,800 Climbing Aus ATC (RADAR)
09:57PM -33.4600 151.3480 358° North 351 404 22,400 900 Level FlightAware
09:58PM -33.3950 151.3800 22° Northeast 379 436 23,200 2,040 Climbing FlightAware
09:59PM -33.3230 151.4140 22° Northeast 366 421 25,300 2,400 Climbing FlightAware
10:00PM -33.2424 151.4510 22° Northeast 367 422 27,000 1,500 Climbing Aus ATC (RADAR)
10:00PM -33.2340 151.4560 22° Northeast 382 440 26,700 1,020 Descending FlightAware
10:00PM -33.1680 151.4870 21° North 385 443 27,800 2,280 Climbing FlightAware
10:01PM -33.1024 151.5173 21° North 375 432 29,700 2,100 Climbing Aus ATC (RADAR)
10:01PM -33.0940 151.5220 21° North 378 435 29,400 1,500 Descending FlightAware
10:02PM -33.0290 151.5540 22° Northeast 364 419 30,900 2,220 Climbing FlightAware
10:02PM -32.9730 151.5960 32° Northeast 356 410 32,400 1,440 Climbing FlightAware
10:03PM -32.9110 151.6480 35° Northeast 359 413 33,000 420 Climbing FlightAware
10:04PM -32.8550 151.6950 35° Northeast 359 413 33,000 300 Level FlightAware
10:04PM -32.8040 151.7383 35° Northeast 362 417 33,400  Climbing Aus ATC (RADAR)
10:05PM -32.8000 151.7420 35° Northeast 360 414 33,000  Descending FlightAware
10:05PM -32.7553 151.7785 35° Northeast 361 415 33,400  Climbing Aus ATC (RADAR)
10:05PM -32.7380 151.7940 35° Northeast 358 412 33,000  Descending FlightAware
10:06PM -32.6727 151.8478 35° Northeast 360 414 33,400  Climbing Aus ATC (RADAR)
10:06PM -32.6760 151.8460 35° Northeast 358 412 33,000 -660 Descending FlightAware
10:07PM -32.6200 151.8930 35° Northeast 357 411 33,000  Level FlightAware
10:07PM -32.5590 151.9440 35° Northeast 357 411 33,000  Level FlightAware
10:08PM -32.5030 151.9900 35° Northeast 357 411 33,000  Level FlightAware
10:09PM -32.4480 152.0360 35° Northeast 359 413 33,000 300 Level FlightAware
10:09PM -32.3946 152.0804 35° Northeast 366 421 33,400  Climbing Aus ATC (RADAR)
10:09PM -32.3900 152.0840 35° Northeast 358 412 33,000  Descending FlightAware
10:10PM -32.3324 152.1316 35° Northeast 365 420 33,400  Climbing Aus ATC (RADAR)
10:10PM -32.3290 152.1350 35° Northeast 357 411 33,000 -540 Descending FlightAware
10:11PM -32.2780 152.1780 35° Northeast 358 412 33,000  Level FlightAware
10:11PM -32.2200 152.2250 34° Northeast 361 415 33,000  Level FlightAware
10:12PM -32.1570 152.2770 35° Northeast 374 430 33,000 180 Level FlightAware
10:13PM -32.1087 152.3165 35° Northeast 376 433 33,300  Climbing Aus ATC (RADAR)
10:13PM -32.0990 152.3240 35° Northeast 376 433 33,000 -1,320 Descending FlightAware
10:14PM -32.0200 152.3900 35° Northeast 377 434 31,900 -1,260 Descending FlightAware
10:15PM -31.9592 152.4396 35° Northeast 373 429 31,000 -1,800 Descending Aus ATC (RADAR)
10:15PM -31.9510 152.4470 35° Northeast 370 426 30,500 -2,040 Descending FlightAware
10:15PM -31.9060 152.4910 40° Northeast 388 447 29,600 -1,620 Descending FlightAware
10:16PM -31.8670 152.5770 62° Northeast 393 452 28,400 -1,560 Descending FlightAware
10:17PM -31.8360 152.6520 64° Northeast 394 453 27,400 -1,620 Descending FlightAware
10:17PM -31.8010 152.7340 64° Northeast 386 444 26,200 -1,380 Descending FlightAware
10:17PM -31.7948 152.7478 64° Northeast 386 444 26,300 -1,620 Climbing Aus ATC (RADAR)
10:18PM -31.7650 152.8140 62° Northeast 371 427 25,000 -1,800 Descending FlightAware
10:19PM -31.7240 152.8710 62° Northeast 347 399 24,000 -1,200 Descending FlightAware
10:19PM -31.7123 152.8805 62° Northeast 349 402 24,100 -1,440 Climbing Aus ATC (RADAR)
10:20PM -31.6530 152.8840 North 319 367 22,800 -1,020 Descending FlightAware
10:20PM -31.6070 152.8810 357° North 319 367 22,800 -1,260 Level FlightAware
10:21PM -31.5311 152.8736 357° North 323 372 21,200  Descending Aus ATC (RADAR)
10:21PM -31.5470 152.8770 357° North 319 367 22,800 2,160 Climbing FlightAware
10:22PM -31.5020 152.8740 357° North 319 367 22,800  Level FlightAware
10:23PM -31.4260 152.8700 357° North 319 367 22,800  Level FlightAware
10:23PM -31.3810 152.8670 357° North 319 367 22,800 -7,980 Level FlightAware
10:23PM -31.3160 152.8946 357° North 331 381 17,500 -8,940 Descending Aus ATC (RADAR)
10:24PM -31.2629 152.9064 357° North 334 384 17,000 -780 Descending Aus ATC (RADAR)
10:25PM -31.1887 152.9235 11° North 328 377 16,400 -1,380 Descending Aus ATC (RADAR)
10:25PM -31.1383 152.9351 11° North 319 367 15,100 -1,860 Descending Aus ATC (RADAR)
10:26PM -31.0388 152.9574 11° North 312 359 13,200 -1,620 Descending Aus ATC (RADAR)
10:27PM -30.9673 152.9746 12° North 291 335 11,800 -1,740 Descending Aus ATC (RADAR)
10:28PM -30.9054 152.9896 12° North 276 318 10,200 -1,680 Descending Aus ATC (RADAR)
10:29PM -30.8614 152.9989 10° North 274 315 9,500 -1,380 Descending Aus ATC (RADAR)
10:30PM -30.8020 153.0137 12° North 264 304 8,300 -1,440 Descending Aus ATC (RADAR)
10:30PM -30.7517 153.0239 10° North 269 310 7,400 -1,440 Descending Aus ATC (RADAR)
10:31PM -30.6533 153.0419 North 403 464 5,700 -1,500 Descending Aus ATC (RADAR)
10:33PM -30.5688 153.0608 11° North  Level Estimated
10:40PM -30.3206 153.1164 11° North  Level Estimated
10:41PM -30.3206 153.1164 348° North  Level Estimated
10:42PM -30.3206 153.1164 348° North  Level Estimated
10:43PM -30.3206 153.1164 348° North  Level Estimated
10:44PM -30.3206 153.1164 348° North  Level Estimated
10:45PM -30.3206 153.1164 348° North  Level Estimated
10:46PM -30.3206 153.1164 348° North  Level Estimated
10:47PM -30.3206 153.1164 348° North  Level Estimated
10:48PM -30.3206 153.1164 348° North  Level Estimated
10:49PM -30.3206 153.1164 348° North  Level Estimated
10:50PM -30.3206 153.1164 348° North  Level Estimated
10:51PM -30.3206 153.1164 348° North  Level Estimated
10:52PM -30.3206 153.1164 348° North  Level Estimated
10:53PM -30.3206 153.1164 348° North  Level Estimated
10:54PM -30.3206 153.1164 348° North  Level Estimated
10:55PM -30.3206 153.1164 348° North  Level Estimated
10:56PM -30.3206 153.1164 348° North  Level Estimated
10:57PM -30.3206 153.1164 348° North  Level Estimated